sensor_id;sensor_type;location;lat;lon;timestamp;temperature;humidity
42965;DHT22;28604;51.204;22.552;2022-10-22T00:01:37;9.90;80.90
42965;DHT22;28604;51.204;22.552;2022-10-22T00:04:04;9.90;83.00
42965;DHT22;28604;51.204;22.552;2022-10-22T00:06:30;9.90;82.70
42965;DHT22;28604;51.204;22.552;2022-10-22T00:08:55;9.80;81.60
42965;DHT22;28604;51.204;22.552;2022-10-22T00:11:21;9.80;83.10
42965;DHT22;28604;51.204;22.552;2022-10-22T00:13:47;9.80;82.90
42965;DHT22;28604;51.204;22.552;2022-10-22T00:16:13;9.70;84.00
42965;DHT22;28604;51.204;22.552;2022-10-22T00:18:39;9.70;83.30
42965;DHT22;28604;51.204;22.552;2022-10-22T00:21:06;9.60;82.40
42965;DHT22;28604;51.204;22.552;2022-10-22T00:23:33;9.60;83.10
42965;DHT22;28604;51.204;22.552;2022-10-22T00:25:59;9.60;84.10
42965;DHT22;28604;51.204;22.552;2022-10-22T00:28:25;9.60;84.90
42965;DHT22;28604;51.204;22.552;2022-10-22T00:30:57;9.60;85.80
42965;DHT22;28604;51.204;22.552;2022-10-22T00:33:24;9.50;84.00
42965;DHT22;28604;51.204;22.552;2022-10-22T00:35:50;9.50;85.10
42965;DHT22;28604;51.204;22.552;2022-10-22T00:38:16;9.50;83.00
42965;DHT22;28604;51.204;22.552;2022-10-22T00:40:42;9.50;84.00
42965;DHT22;28604;51.204;22.552;2022-10-22T00:43:11;9.60;84.20
42965;DHT22;28604;51.204;22.552;2022-10-22T00:45:37;9.50;85.50
42965;DHT22;28604;51.204;22.552;2022-10-22T00:50:58;9.60;85.80
42965;DHT22;28604;51.204;22.552;2022-10-22T00:53:28;9.50;85.00
42965;DHT22;28604;51.204;22.552;2022-10-22T00:55:56;9.50;85.30
42965;DHT22;28604;51.204;22.552;2022-10-22T00:58:25;9.50;85.00
42965;DHT22;28604;51.204;22.552;2022-10-22T01:00:52;9.50;86.10
42965;DHT22;28604;51.204;22.552;2022-10-22T01:03:19;9.50;86.10
42965;DHT22;28604;51.204;22.552;2022-10-22T01:11:03;9.50;84.70
42965;DHT22;28604;51.204;22.552;2022-10-22T01:13:52;9.50;83.60
42965;DHT22;28604;51.204;22.552;2022-10-22T01:16:39;9.50;84.60
42965;DHT22;28604;51.204;22.552;2022-10-22T01:21:41;9.50;84.70
42965;DHT22;28604;51.204;22.552;2022-10-22T01:29:33;9.50;85.50
42965;DHT22;28604;51.204;22.552;2022-10-22T01:32:03;9.50;84.50
42965;DHT22;28604;51.204;22.552;2022-10-22T01:34:31;9.40;84.10
42965;DHT22;28604;51.204;22.552;2022-10-22T01:36:59;9.40;85.00
42965;DHT22;28604;51.204;22.552;2022-10-22T01:39:27;9.40;85.30
42965;DHT22;28604;51.204;22.552;2022-10-22T01:41:55;9.30;86.30
42965;DHT22;28604;51.204;22.552;2022-10-22T01:44:30;9.30;86.00
42965;DHT22;28604;51.204;22.552;2022-10-22T01:55:52;9.30;87.30
42965;DHT22;28604;51.204;22.552;2022-10-22T02:01:58;9.30;86.10
42965;DHT22;28604;51.204;22.552;2022-10-22T02:06:59;9.40;86.30
42965;DHT22;28604;51.204;22.552;2022-10-22T02:09:27;9.40;85.80
42965;DHT22;28604;51.204;22.552;2022-10-22T02:11:56;9.40;85.10
42965;DHT22;28604;51.204;22.552;2022-10-22T02:14:24;9.40;86.10
42965;DHT22;28604;51.204;22.552;2022-10-22T02:16:52;9.40;85.20
42965;DHT22;28604;51.204;22.552;2022-10-22T02:19:26;9.40;86.60
42965;DHT22;28604;51.204;22.552;2022-10-22T02:21:53;9.40;86.50
42965;DHT22;28604;51.204;22.552;2022-10-22T02:24:20;9.40;84.80
42965;DHT22;28604;51.204;22.552;2022-10-22T02:27:05;9.40;84.60
42965;DHT22;28604;51.204;22.552;2022-10-22T02:29:57;9.40;84.80
42965;DHT22;28604;51.204;22.552;2022-10-22T02:32:35;9.40;85.50
42965;DHT22;28604;51.204;22.552;2022-10-22T02:35:06;9.40;85.10
42965;DHT22;28604;51.204;22.552;2022-10-22T02:37:33;9.40;85.50
42965;DHT22;28604;51.204;22.552;2022-10-22T02:40:00;9.40;84.40
42965;DHT22;28604;51.204;22.552;2022-10-22T02:42:27;9.50;85.10
42965;DHT22;28604;51.204;22.552;2022-10-22T02:44:53;9.40;84.30
42965;DHT22;28604;51.204;22.552;2022-10-22T02:47:19;9.50;84.10
42965;DHT22;28604;51.204;22.552;2022-10-22T02:49:45;9.50;84.90
42965;DHT22;28604;51.204;22.552;2022-10-22T02:52:11;9.50;84.60
42965;DHT22;28604;51.204;22.552;2022-10-22T02:54:37;9.50;85.00
42965;DHT22;28604;51.204;22.552;2022-10-22T02:57:03;9.50;84.30
42965;DHT22;28604;51.204;22.552;2022-10-22T02:59:29;9.50;83.20
42965;DHT22;28604;51.204;22.552;2022-10-22T03:01:54;9.50;84.30
42965;DHT22;28604;51.204;22.552;2022-10-22T03:04:20;9.50;84.00
42965;DHT22;28604;51.204;22.552;2022-10-22T03:06:46;9.50;83.70
42965;DHT22;28604;51.204;22.552;2022-10-22T03:09:13;9.60;83.80
42965;DHT22;28604;51.204;22.552;2022-10-22T03:11:39;9.50;82.80
42965;DHT22;28604;51.204;22.552;2022-10-22T03:14:05;9.60;83.80
42965;DHT22;28604;51.204;22.552;2022-10-22T03:16:31;9.60;83.20
42965;DHT22;28604;51.204;22.552;2022-10-22T03:18:57;9.60;82.60
42965;DHT22;28604;51.204;22.552;2022-10-22T03:21:35;9.60;82.30
42965;DHT22;28604;51.204;22.552;2022-10-22T03:24:07;9.60;82.90
42965;DHT22;28604;51.204;22.552;2022-10-22T03:26:34;9.50;82.70
42965;DHT22;28604;51.204;22.552;2022-10-22T03:29:01;9.60;82.80
42965;DHT22;28604;51.204;22.552;2022-10-22T03:31:27;9.60;81.80
42965;DHT22;28604;51.204;22.552;2022-10-22T03:33:53;9.60;83.20
42965;DHT22;28604;51.204;22.552;2022-10-22T03:36:18;9.70;82.00
42965;DHT22;28604;51.204;22.552;2022-10-22T03:38:45;9.60;82.10
42965;DHT22;28604;51.204;22.552;2022-10-22T03:41:10;9.60;82.60
42965;DHT22;28604;51.204;22.552;2022-10-22T03:43:37;9.70;84.00
42965;DHT22;28604;51.204;22.552;2022-10-22T03:46:03;9.70;83.60
42965;DHT22;28604;51.204;22.552;2022-10-22T03:48:29;9.70;83.00
42965;DHT22;28604;51.204;22.552;2022-10-22T03:50:55;9.70;82.80
42965;DHT22;28604;51.204;22.552;2022-10-22T03:53:21;9.70;83.40
42965;DHT22;28604;51.204;22.552;2022-10-22T03:55:47;9.70;83.50
42965;DHT22;28604;51.204;22.552;2022-10-22T03:58:13;9.70;82.60
42965;DHT22;28604;51.204;22.552;2022-10-22T04:00:39;9.70;83.80
42965;DHT22;28604;51.204;22.552;2022-10-22T04:03:05;9.70;83.30
42965;DHT22;28604;51.204;22.552;2022-10-22T04:05:32;9.70;83.30
42965;DHT22;28604;51.204;22.552;2022-10-22T04:07:58;9.70;83.00
42965;DHT22;28604;51.204;22.552;2022-10-22T04:10:24;9.70;82.90
42965;DHT22;28604;51.204;22.552;2022-10-22T04:12:50;9.70;82.40
42965;DHT22;28604;51.204;22.552;2022-10-22T04:15:16;9.70;82.00
42965;DHT22;28604;51.204;22.552;2022-10-22T04:17:43;9.70;82.10
42965;DHT22;28604;51.204;22.552;2022-10-22T04:20:09;9.70;81.00
42965;DHT22;28604;51.204;22.552;2022-10-22T04:22:36;9.70;82.00
42965;DHT22;28604;51.204;22.552;2022-10-22T04:25:03;9.70;81.50
42965;DHT22;28604;51.204;22.552;2022-10-22T04:30:19;9.60;81.90
42965;DHT22;28604;51.204;22.552;2022-10-22T04:32:45;9.60;80.90
42965;DHT22;28604;51.204;22.552;2022-10-22T04:35:10;9.60;82.00
42965;DHT22;28604;51.204;22.552;2022-10-22T04:37:36;9.60;81.10
42965;DHT22;28604;51.204;22.552;2022-10-22T04:40:03;9.60;82.20
42965;DHT22;28604;51.204;22.552;2022-10-22T04:42:29;9.50;81.10
42965;DHT22;28604;51.204;22.552;2022-10-22T04:44:55;9.50;82.10
42965;DHT22;28604;51.204;22.552;2022-10-22T04:47:21;9.50;82.20
42965;DHT22;28604;51.204;22.552;2022-10-22T04:49:47;9.50;82.40
42965;DHT22;28604;51.204;22.552;2022-10-22T04:52:13;9.40;81.40
42965;DHT22;28604;51.204;22.552;2022-10-22T04:54:39;9.40;82.90
42965;DHT22;28604;51.204;22.552;2022-10-22T04:57:05;9.40;82.30
42965;DHT22;28604;51.204;22.552;2022-10-22T04:59:31;9.40;81.80
42965;DHT22;28604;51.204;22.552;2022-10-22T05:01:57;9.40;81.80
42965;DHT22;28604;51.204;22.552;2022-10-22T05:04:23;9.40;81.50
42965;DHT22;28604;51.204;22.552;2022-10-22T05:06:49;9.40;81.30
42965;DHT22;28604;51.204;22.552;2022-10-22T05:09:17;9.30;81.50
42965;DHT22;28604;51.204;22.552;2022-10-22T05:11:45;9.30;81.70
42965;DHT22;28604;51.204;22.552;2022-10-22T05:14:15;9.30;81.00
42965;DHT22;28604;51.204;22.552;2022-10-22T05:16:41;9.40;81.70
42965;DHT22;28604;51.204;22.552;2022-10-22T05:19:11;9.40;81.80
42965;DHT22;28604;51.204;22.552;2022-10-22T05:21:39;9.30;82.20
42965;DHT22;28604;51.204;22.552;2022-10-22T05:24:05;9.30;82.20
42965;DHT22;28604;51.204;22.552;2022-10-22T05:26:31;9.30;81.00
42965;DHT22;28604;51.204;22.552;2022-10-22T05:28:57;9.30;81.00
42965;DHT22;28604;51.204;22.552;2022-10-22T05:31:23;9.30;82.40
42965;DHT22;28604;51.204;22.552;2022-10-22T05:33:49;9.30;81.50
42965;DHT22;28604;51.204;22.552;2022-10-22T05:36:18;9.30;81.50
42965;DHT22;28604;51.204;22.552;2022-10-22T05:38:44;9.30;81.80
42965;DHT22;28604;51.204;22.552;2022-10-22T05:41:16;9.30;81.30
42965;DHT22;28604;51.204;22.552;2022-10-22T05:43:43;9.40;81.00
42965;DHT22;28604;51.204;22.552;2022-10-22T05:46:12;9.40;81.30
42965;DHT22;28604;51.204;22.552;2022-10-22T05:48:38;9.50;81.50
42965;DHT22;28604;51.204;22.552;2022-10-22T05:51:08;9.50;82.30
42965;DHT22;28604;51.204;22.552;2022-10-22T05:53:37;9.60;82.10
42965;DHT22;28604;51.204;22.552;2022-10-22T05:58:43;9.80;81.70
42965;DHT22;28604;51.204;22.552;2022-10-22T06:01:16;9.80;82.10
42965;DHT22;28604;51.204;22.552;2022-10-22T06:03:43;10.00;82.30
42965;DHT22;28604;51.204;22.552;2022-10-22T06:06:30;10.10;82.00
42965;DHT22;28604;51.204;22.552;2022-10-22T06:09:15;10.30;81.50
42965;DHT22;28604;51.204;22.552;2022-10-22T06:11:42;10.50;81.00
42965;DHT22;28604;51.204;22.552;2022-10-22T06:14:08;10.70;80.30
42965;DHT22;28604;51.204;22.552;2022-10-22T06:16:34;10.70;79.60
42965;DHT22;28604;51.204;22.552;2022-10-22T06:19:01;10.90;79.20
42965;DHT22;28604;51.204;22.552;2022-10-22T06:21:28;10.90;79.00
42965;DHT22;28604;51.204;22.552;2022-10-22T06:23:55;10.90;78.60
42965;DHT22;28604;51.204;22.552;2022-10-22T06:26:22;10.90;78.70
42965;DHT22;28604;51.204;22.552;2022-10-22T06:28:48;10.90;78.90
42965;DHT22;28604;51.204;22.552;2022-10-22T06:31:14;11.00;79.00
42965;DHT22;28604;51.204;22.552;2022-10-22T06:33:40;11.10;79.20
42965;DHT22;28604;51.204;22.552;2022-10-22T06:36:14;11.40;78.60
42965;DHT22;28604;51.204;22.552;2022-10-22T06:38:41;11.60;78.40
42965;DHT22;28604;51.204;22.552;2022-10-22T06:41:10;12.00;78.00
42965;DHT22;28604;51.204;22.552;2022-10-22T06:43:36;12.30;77.60
42965;DHT22;28604;51.204;22.552;2022-10-22T06:46:05;12.60;76.20
42965;DHT22;28604;51.204;22.552;2022-10-22T06:48:32;12.90;75.00
42965;DHT22;28604;51.204;22.552;2022-10-22T06:51:06;13.10;75.10
42965;DHT22;28604;51.204;22.552;2022-10-22T06:53:33;13.30;73.60
42965;DHT22;28604;51.204;22.552;2022-10-22T06:56:11;13.50;73.50
42965;DHT22;28604;51.204;22.552;2022-10-22T06:58:37;13.70;73.70
42965;DHT22;28604;51.204;22.552;2022-10-22T07:01:09;13.90;72.00
42965;DHT22;28604;51.204;22.552;2022-10-22T07:03:36;14.20;72.30
42965;DHT22;28604;51.204;22.552;2022-10-22T07:06:05;14.50;71.20
42965;DHT22;28604;51.204;22.552;2022-10-22T07:08:32;14.90;70.90
42965;DHT22;28604;51.204;22.552;2022-10-22T07:11:12;15.20;70.50
42965;DHT22;28604;51.204;22.552;2022-10-22T07:13:38;15.50;69.70
42965;DHT22;28604;51.204;22.552;2022-10-22T07:16:05;15.70;69.20
42965;DHT22;28604;51.204;22.552;2022-10-22T07:18:32;15.80;68.30
42965;DHT22;28604;51.204;22.552;2022-10-22T07:20:59;16.00;68.20
42965;DHT22;28604;51.204;22.552;2022-10-22T07:23:26;15.90;68.60
42965;DHT22;28604;51.204;22.552;2022-10-22T07:25:52;15.90;67.40
42965;DHT22;28604;51.204;22.552;2022-10-22T07:28:18;15.90;67.10
42965;DHT22;28604;51.204;22.552;2022-10-22T07:30:44;15.80;67.20
42965;DHT22;28604;51.204;22.552;2022-10-22T07:33:10;15.60;67.80
42965;DHT22;28604;51.204;22.552;2022-10-22T07:35:37;15.40;67.40
42965;DHT22;28604;51.204;22.552;2022-10-22T07:38:05;15.20;68.40
42965;DHT22;28604;51.204;22.552;2022-10-22T07:40:32;15.10;68.40
42965;DHT22;28604;51.204;22.552;2022-10-22T07:42:57;15.00;69.00
42965;DHT22;28604;51.204;22.552;2022-10-22T07:45:23;15.00;69.30
42965;DHT22;28604;51.204;22.552;2022-10-22T07:47:49;15.10;68.90
42965;DHT22;28604;51.204;22.552;2022-10-22T07:50:16;15.00;68.90
42965;DHT22;28604;51.204;22.552;2022-10-22T07:52:42;14.90;69.00
42965;DHT22;28604;51.204;22.552;2022-10-22T07:57:39;15.00;69.30
42965;DHT22;28604;51.204;22.552;2022-10-22T08:00:06;14.80;69.10
42965;DHT22;28604;51.204;22.552;2022-10-22T08:02:37;14.80;69.40
42965;DHT22;28604;51.204;22.552;2022-10-22T08:05:04;14.80;69.50
42965;DHT22;28604;51.204;22.552;2022-10-22T08:07:30;14.70;69.90
42965;DHT22;28604;51.204;22.552;2022-10-22T08:09:56;14.70;69.90
42965;DHT22;28604;51.204;22.552;2022-10-22T08:12:21;14.60;70.40
42965;DHT22;28604;51.204;22.552;2022-10-22T08:14:47;14.60;70.30
42965;DHT22;28604;51.204;22.552;2022-10-22T08:17:13;14.60;70.60
42965;DHT22;28604;51.204;22.552;2022-10-22T08:19:39;14.60;71.20
42965;DHT22;28604;51.204;22.552;2022-10-22T08:22:05;14.70;71.50
42965;DHT22;28604;51.204;22.552;2022-10-22T08:24:31;14.80;71.40
42965;DHT22;28604;51.204;22.552;2022-10-22T08:26:57;14.90;71.50
42965;DHT22;28604;51.204;22.552;2022-10-22T08:29:24;15.10;70.80
42965;DHT22;28604;51.204;22.552;2022-10-22T08:31:52;15.30;70.70
42965;DHT22;28604;51.204;22.552;2022-10-22T08:34:19;15.40;70.20
42965;DHT22;28604;51.204;22.552;2022-10-22T08:36:45;15.50;70.30
42965;DHT22;28604;51.204;22.552;2022-10-22T08:39:11;15.50;69.60
42965;DHT22;28604;51.204;22.552;2022-10-22T08:50:33;16.10;69.00
42965;DHT22;28604;51.204;22.552;2022-10-22T08:53:03;16.30;68.50
42965;DHT22;28604;51.204;22.552;2022-10-22T08:55:30;16.30;68.00
42965;DHT22;28604;51.204;22.552;2022-10-22T08:58:09;16.50;68.00
42965;DHT22;28604;51.204;22.552;2022-10-22T09:00:54;16.60;67.20
42965;DHT22;28604;51.204;22.552;2022-10-22T09:03:33;16.50;66.40
42965;DHT22;28604;51.204;22.552;2022-10-22T09:06:23;16.50;66.80
42965;DHT22;28604;51.204;22.552;2022-10-22T09:08:50;16.50;66.90
42965;DHT22;28604;51.204;22.552;2022-10-22T09:11:24;16.50;67.20
42965;DHT22;28604;51.204;22.552;2022-10-22T09:13:51;16.40;67.10
42965;DHT22;28604;51.204;22.552;2022-10-22T09:19:21;16.40;67.70
42965;DHT22;28604;51.204;22.552;2022-10-22T09:21:53;16.50;66.40
42965;DHT22;28604;51.204;22.552;2022-10-22T09:24:43;16.40;66.90
42965;DHT22;28604;51.204;22.552;2022-10-22T09:27:13;16.40;67.10
42965;DHT22;28604;51.204;22.552;2022-10-22T09:29:39;16.30;67.20
42965;DHT22;28604;51.204;22.552;2022-10-22T09:32:05;16.30;67.20
42965;DHT22;28604;51.204;22.552;2022-10-22T09:34:32;16.20;67.40
42965;DHT22;28604;51.204;22.552;2022-10-22T09:37:00;16.10;67.70
42965;DHT22;28604;51.204;22.552;2022-10-22T09:39:33;16.20;67.90
42965;DHT22;28604;51.204;22.552;2022-10-22T09:42:00;16.10;68.10
42965;DHT22;28604;51.204;22.552;2022-10-22T09:44:26;16.10;68.00
42965;DHT22;28604;51.204;22.552;2022-10-22T09:46:52;16.00;67.60
42965;DHT22;28604;51.204;22.552;2022-10-22T09:49:20;15.90;68.40
42965;DHT22;28604;51.204;22.552;2022-10-22T09:51:56;15.70;68.90
42965;DHT22;28604;51.204;22.552;2022-10-22T09:54:25;15.70;69.20
42965;DHT22;28604;51.204;22.552;2022-10-22T09:57:04;15.70;69.30
42965;DHT22;28604;51.204;22.552;2022-10-22T09:59:32;15.60;69.60
42965;DHT22;28604;51.204;22.552;2022-10-22T10:02:17;15.60;69.80
42965;DHT22;28604;51.204;22.552;2022-10-22T10:04:52;15.60;69.70
42965;DHT22;28604;51.204;22.552;2022-10-22T10:07:30;15.60;69.80
42965;DHT22;28604;51.204;22.552;2022-10-22T10:09:57;15.50;70.20
42965;DHT22;28604;51.204;22.552;2022-10-22T10:12:35;15.60;70.10
42965;DHT22;28604;51.204;22.552;2022-10-22T10:20:52;15.60;70.60
42965;DHT22;28604;51.204;22.552;2022-10-22T10:23:45;15.60;70.80
42965;DHT22;28604;51.204;22.552;2022-10-22T10:26:38;15.40;71.20
42965;DHT22;28604;51.204;22.552;2022-10-22T10:29:31;15.60;71.20
42965;DHT22;28604;51.204;22.552;2022-10-22T10:37:34;15.70;71.20
42965;DHT22;28604;51.204;22.552;2022-10-22T10:43:10;15.80;71.10
42965;DHT22;28604;51.204;22.552;2022-10-22T10:48:56;15.80;71.70
42965;DHT22;28604;51.204;22.552;2022-10-22T10:54:24;16.00;71.50
42965;DHT22;28604;51.204;22.552;2022-10-22T10:56:57;16.00;71.40
42965;DHT22;28604;51.204;22.552;2022-10-22T11:02:26;16.30;71.10
42965;DHT22;28604;51.204;22.552;2022-10-22T11:07:58;16.30;71.20
42965;DHT22;28604;51.204;22.552;2022-10-22T11:10:49;16.30;71.10
42965;DHT22;28604;51.204;22.552;2022-10-22T11:13:29;16.30;71.10
42965;DHT22;28604;51.204;22.552;2022-10-22T11:19:00;16.30;71.20
42965;DHT22;28604;51.204;22.552;2022-10-22T11:21:33;16.30;71.40
42965;DHT22;28604;51.204;22.552;2022-10-22T11:26:54;16.30;71.90
42965;DHT22;28604;51.204;22.552;2022-10-22T11:29:29;16.40;71.90
42965;DHT22;28604;51.204;22.552;2022-10-22T11:31:57;16.40;71.90
42965;DHT22;28604;51.204;22.552;2022-10-22T11:34:31;16.40;71.80
42965;DHT22;28604;51.204;22.552;2022-10-22T11:36:58;16.50;72.00
42965;DHT22;28604;51.204;22.552;2022-10-22T11:41:58;16.50;72.30
42965;DHT22;28604;51.204;22.552;2022-10-22T11:44:24;16.50;72.60
42965;DHT22;28604;51.204;22.552;2022-10-22T11:47:02;16.40;72.90
42965;DHT22;28604;51.204;22.552;2022-10-22T11:49:44;16.40;73.10
42965;DHT22;28604;51.204;22.552;2022-10-22T11:52:24;16.40;73.40
42965;DHT22;28604;51.204;22.552;2022-10-22T11:54:54;16.30;73.60
42965;DHT22;28604;51.204;22.552;2022-10-22T11:57:26;16.30;73.60
42965;DHT22;28604;51.204;22.552;2022-10-22T11:59:57;16.30;73.80
42965;DHT22;28604;51.204;22.552;2022-10-22T12:02:39;16.30;74.00
42965;DHT22;28604;51.204;22.552;2022-10-22T12:08:37;16.30;74.10
42965;DHT22;28604;51.204;22.552;2022-10-22T12:16:37;16.20;74.10
42965;DHT22;28604;51.204;22.552;2022-10-22T12:19:30;16.20;74.40
42965;DHT22;28604;51.204;22.552;2022-10-22T12:24:36;16.10;74.80
42965;DHT22;28604;51.204;22.552;2022-10-22T12:27:03;16.00;74.80
42965;DHT22;28604;51.204;22.552;2022-10-22T12:29:31;16.00;74.70
42965;DHT22;28604;51.204;22.552;2022-10-22T12:32:02;16.00;75.00
42965;DHT22;28604;51.204;22.552;2022-10-22T12:34:28;15.90;75.10
42965;DHT22;28604;51.204;22.552;2022-10-22T12:36:54;15.90;75.50
42965;DHT22;28604;51.204;22.552;2022-10-22T12:39:29;15.90;75.10
42965;DHT22;28604;51.204;22.552;2022-10-22T12:41:57;15.90;75.50
42965;DHT22;28604;51.204;22.552;2022-10-22T12:44:23;15.90;75.40
42965;DHT22;28604;51.204;22.552;2022-10-22T12:46:49;15.80;75.80
42965;DHT22;28604;51.204;22.552;2022-10-22T12:49:24;15.80;76.00
42965;DHT22;28604;51.204;22.552;2022-10-22T12:51:52;15.80;76.10
42965;DHT22;28604;51.204;22.552;2022-10-22T12:54:25;15.90;75.90
42965;DHT22;28604;51.204;22.552;2022-10-22T12:56:53;15.80;76.10
42965;DHT22;28604;51.204;22.552;2022-10-22T12:59:32;15.80;76.30
42965;DHT22;28604;51.204;22.552;2022-10-22T13:01:59;15.80;76.00
42965;DHT22;28604;51.204;22.552;2022-10-22T13:12:25;15.70;75.70
42965;DHT22;28604;51.204;22.552;2022-10-22T13:14:52;15.70;75.70
42965;DHT22;28604;51.204;22.552;2022-10-22T13:17:38;15.60;76.10
42965;DHT22;28604;51.204;22.552;2022-10-22T13:20:19;15.60;75.90
42965;DHT22;28604;51.204;22.552;2022-10-22T13:25:30;15.50;75.90
42965;DHT22;28604;51.204;22.552;2022-10-22T13:30:30;15.40;79.30
42965;DHT22;28604;51.204;22.552;2022-10-22T13:32:59;15.40;79.20
42965;DHT22;28604;51.204;22.552;2022-10-22T13:35:29;15.40;80.10
42965;DHT22;28604;51.204;22.552;2022-10-22T13:37:58;15.40;80.60
42965;DHT22;28604;51.204;22.552;2022-10-22T13:40:25;15.30;80.90
42965;DHT22;28604;51.204;22.552;2022-10-22T13:42:51;15.30;80.00
42965;DHT22;28604;51.204;22.552;2022-10-22T13:45:17;15.20;80.10
42965;DHT22;28604;51.204;22.552;2022-10-22T13:47:51;15.10;80.70
42965;DHT22;28604;51.204;22.552;2022-10-22T13:50:19;15.00;81.40
42965;DHT22;28604;51.204;22.552;2022-10-22T13:52:49;15.00;81.30
42965;DHT22;28604;51.204;22.552;2022-10-22T13:55:19;15.00;80.80
42965;DHT22;28604;51.204;22.552;2022-10-22T13:57:45;14.90;80.50
42965;DHT22;28604;51.204;22.552;2022-10-22T14:00:17;14.90;80.40
42965;DHT22;28604;51.204;22.552;2022-10-22T14:02:46;14.80;80.90
42965;DHT22;28604;51.204;22.552;2022-10-22T14:05:12;14.70;80.30
42965;DHT22;28604;51.204;22.552;2022-10-22T14:07:39;14.70;81.50
42965;DHT22;28604;51.204;22.552;2022-10-22T14:10:21;14.60;80.60
42965;DHT22;28604;51.204;22.552;2022-10-22T14:12:47;14.50;79.80
42965;DHT22;28604;51.204;22.552;2022-10-22T14:15:15;14.50;80.70
42965;DHT22;28604;51.204;22.552;2022-10-22T14:17:59;14.40;80.30
42965;DHT22;28604;51.204;22.552;2022-10-22T14:20:29;14.40;80.50
42965;DHT22;28604;51.204;22.552;2022-10-22T14:23:01;14.30;80.80
42965;DHT22;28604;51.204;22.552;2022-10-22T14:25:27;14.20;81.20
42965;DHT22;28604;51.204;22.552;2022-10-22T14:27:56;14.10;82.60
42965;DHT22;28604;51.204;22.552;2022-10-22T14:30:24;14.10;82.20
42965;DHT22;28604;51.204;22.552;2022-10-22T14:32:51;14.00;83.90
42965;DHT22;28604;51.204;22.552;2022-10-22T14:35:19;13.90;84.20
42965;DHT22;28604;51.204;22.552;2022-10-22T14:37:46;13.90;84.30
42965;DHT22;28604;51.204;22.552;2022-10-22T14:40:15;13.80;84.10
42965;DHT22;28604;51.204;22.552;2022-10-22T14:42:43;13.80;85.10
42965;DHT22;28604;51.204;22.552;2022-10-22T14:45:23;13.70;84.50
42965;DHT22;28604;51.204;22.552;2022-10-22T14:47:50;13.60;85.80
42965;DHT22;28604;51.204;22.552;2022-10-22T14:50:17;13.70;84.80
42965;DHT22;28604;51.204;22.552;2022-10-22T14:52:43;13.60;85.30
42965;DHT22;28604;51.204;22.552;2022-10-22T14:55:11;13.50;85.80
42965;DHT22;28604;51.204;22.552;2022-10-22T14:57:38;13.50;85.60
42965;DHT22;28604;51.204;22.552;2022-10-22T15:00:07;13.50;86.10
42965;DHT22;28604;51.204;22.552;2022-10-22T15:02:33;13.40;86.80
42965;DHT22;28604;51.204;22.552;2022-10-22T15:04:59;13.30;86.70
42965;DHT22;28604;51.204;22.552;2022-10-22T15:07:25;13.30;86.70
42965;DHT22;28604;51.204;22.552;2022-10-22T15:09:52;13.40;86.00
42965;DHT22;28604;51.204;22.552;2022-10-22T15:12:19;13.30;86.00
42965;DHT22;28604;51.204;22.552;2022-10-22T15:14:48;13.20;87.00
42965;DHT22;28604;51.204;22.552;2022-10-22T15:17:16;13.20;88.50
42965;DHT22;28604;51.204;22.552;2022-10-22T15:19:42;13.10;87.20
42965;DHT22;28604;51.204;22.552;2022-10-22T15:22:09;13.20;87.30
42965;DHT22;28604;51.204;22.552;2022-10-22T15:24:35;13.20;87.60
42965;DHT22;28604;51.204;22.552;2022-10-22T15:27:01;13.20;87.30
42965;DHT22;28604;51.204;22.552;2022-10-22T15:29:31;13.10;87.90
42965;DHT22;28604;51.204;22.552;2022-10-22T15:31:58;13.10;87.70
42965;DHT22;28604;51.204;22.552;2022-10-22T15:34:30;13.00;89.50
42965;DHT22;28604;51.204;22.552;2022-10-22T15:36:58;13.00;88.00
42965;DHT22;28604;51.204;22.552;2022-10-22T15:39:25;13.00;90.00
42965;DHT22;28604;51.204;22.552;2022-10-22T15:41:52;12.90;90.20
42965;DHT22;28604;51.204;22.552;2022-10-22T15:44:21;12.90;90.20
42965;DHT22;28604;51.204;22.552;2022-10-22T15:46:47;12.80;89.60
42965;DHT22;28604;51.204;22.552;2022-10-22T15:49:13;12.80;89.70
42965;DHT22;28604;51.204;22.552;2022-10-22T15:51:39;12.80;90.30
42965;DHT22;28604;51.204;22.552;2022-10-22T15:54:05;12.80;90.00
42965;DHT22;28604;51.204;22.552;2022-10-22T15:56:31;12.80;90.40
42965;DHT22;28604;51.204;22.552;2022-10-22T15:58:59;12.80;89.70
42965;DHT22;28604;51.204;22.552;2022-10-22T16:01:27;12.70;90.20
42965;DHT22;28604;51.204;22.552;2022-10-22T16:03:53;12.70;90.70
42965;DHT22;28604;51.204;22.552;2022-10-22T16:06:36;12.70;90.70
42965;DHT22;28604;51.204;22.552;2022-10-22T16:09:05;12.70;90.30
42965;DHT22;28604;51.204;22.552;2022-10-22T16:11:35;12.70;90.50
42965;DHT22;28604;51.204;22.552;2022-10-22T16:14:01;12.70;90.40
42965;DHT22;28604;51.204;22.552;2022-10-22T16:16:31;12.60;89.80
42965;DHT22;28604;51.204;22.552;2022-10-22T16:18:57;12.60;90.40
42965;DHT22;28604;51.204;22.552;2022-10-22T16:21:24;12.60;90.70
42965;DHT22;28604;51.204;22.552;2022-10-22T16:23:50;12.60;90.60
42965;DHT22;28604;51.204;22.552;2022-10-22T16:26:17;12.60;90.70
42965;DHT22;28604;51.204;22.552;2022-10-22T16:28:44;12.50;90.00
42965;DHT22;28604;51.204;22.552;2022-10-22T16:31:13;12.50;91.40
42965;DHT22;28604;51.204;22.552;2022-10-22T16:33:40;12.50;91.10
42965;DHT22;28604;51.204;22.552;2022-10-22T16:36:14;12.50;91.00
42965;DHT22;28604;51.204;22.552;2022-10-22T16:38:50;12.50;90.60
42965;DHT22;28604;51.204;22.552;2022-10-22T16:41:17;12.50;91.20
42965;DHT22;28604;51.204;22.552;2022-10-22T16:43:45;12.50;90.90
42965;DHT22;28604;51.204;22.552;2022-10-22T16:46:18;12.40;91.30
42965;DHT22;28604;51.204;22.552;2022-10-22T16:48:50;12.50;91.10
42965;DHT22;28604;51.204;22.552;2022-10-22T16:51:21;12.40;91.50
42965;DHT22;28604;51.204;22.552;2022-10-22T16:53:50;12.50;90.90
42965;DHT22;28604;51.204;22.552;2022-10-22T16:56:16;12.40;91.50
42965;DHT22;28604;51.204;22.552;2022-10-22T16:58:47;12.30;91.20
42965;DHT22;28604;51.204;22.552;2022-10-22T17:01:14;12.30;91.50
42965;DHT22;28604;51.204;22.552;2022-10-22T17:03:40;12.40;91.00
42965;DHT22;28604;51.204;22.552;2022-10-22T17:06:07;12.40;91.40
42965;DHT22;28604;51.204;22.552;2022-10-22T17:08:34;12.40;91.40
42965;DHT22;28604;51.204;22.552;2022-10-22T17:11:12;12.40;92.10
42965;DHT22;28604;51.204;22.552;2022-10-22T17:13:42;12.40;91.90
42965;DHT22;28604;51.204;22.552;2022-10-22T17:16:10;12.40;91.80
42965;DHT22;28604;51.204;22.552;2022-10-22T17:18:38;12.30;91.30
42965;DHT22;28604;51.204;22.552;2022-10-22T17:21:07;12.30;91.90
42965;DHT22;28604;51.204;22.552;2022-10-22T17:23:33;12.30;91.50